createdAt,value
2022-09-11T00:00:50.812Z,17.40
2022-09-11T00:04:52.001Z,17.40
2022-09-11T00:08:57.611Z,17.20
2022-09-11T00:12:58.794Z,17.30
2022-09-11T00:16:59.900Z,17.50
2022-09-11T00:21:02.518Z,17.50
2022-09-11T00:25:04.129Z,17.50
2022-09-11T00:29:05.328Z,17.50
2022-09-11T00:33:06.514Z,17.50
2022-09-11T00:37:08.835Z,17.40
2022-09-11T00:41:16.724Z,17.50
2022-09-11T00:45:24.523Z,17.50
2022-09-11T00:49:32.428Z,17.60
2022-09-11T00:53:35.831Z,17.50
2022-09-11T00:57:47.046Z,17.50
2022-09-11T01:01:48.252Z,17.60
2022-09-11T01:05:49.525Z,17.60
2022-09-11T01:09:51.411Z,17.50
2022-09-11T01:14:05.536Z,17.50
2022-09-11T01:18:21.699Z,17.50
2022-09-11T01:22:32.953Z,17.60
2022-09-11T01:26:53.262Z,17.60
2022-09-11T01:30:58.669Z,17.60
2022-09-11T01:35:09.259Z,17.50
2022-09-11T01:39:11.754Z,17.50
2022-09-11T01:43:16.635Z,17.50
2022-09-11T01:47:20.342Z,17.50
2022-09-11T01:51:25.343Z,17.70
2022-09-11T01:55:34.088Z,17.70
2022-09-11T01:59:39.111Z,17.70
2022-09-11T02:03:44.095Z,17.70
2022-09-11T02:07:55.022Z,17.80
2022-09-11T02:11:59.519Z,17.80
2022-09-11T02:16:13.592Z,17.80
2022-09-11T02:20:15.607Z,17.80
2022-09-11T02:24:18.421Z,17.70
2022-09-11T02:28:19.611Z,17.70
2022-09-11T02:32:22.301Z,17.80
2022-09-11T02:36:45.011Z,17.80
2022-09-11T02:40:49.995Z,17.80
2022-09-11T02:45:11.489Z,17.70
2022-09-11T02:49:34.606Z,17.70
2022-09-11T02:54:10.016Z,17.50
2022-09-11T02:58:21.220Z,17.50
2022-09-11T03:02:27.021Z,17.40
2022-09-11T03:06:28.353Z,17.50
2022-09-11T03:10:29.528Z,17.50
2022-09-11T03:14:31.029Z,17.50
2022-09-11T03:18:32.492Z,17.50
2022-09-11T03:22:33.680Z,17.50
2022-09-11T03:26:36.062Z,17.40
2022-09-11T03:30:37.233Z,17.50
2022-09-11T03:34:38.417Z,17.50
2022-09-11T03:38:39.715Z,17.50
2022-09-11T03:42:40.883Z,17.50
2022-09-11T03:46:41.965Z,17.50
2022-09-11T03:50:44.827Z,17.60
2022-09-11T03:54:47.004Z,17.60
2022-09-11T03:58:48.298Z,17.60
2022-09-11T04:02:49.482Z,17.50
2022-09-11T04:06:50.857Z,17.60
2022-09-11T04:11:00.627Z,17.60
2022-09-11T04:15:01.803Z,17.70
2022-09-11T04:19:03.324Z,17.70
2022-09-11T04:23:04.482Z,17.60
2022-09-11T04:27:05.981Z,17.60
2022-09-11T04:31:07.135Z,17.50
2022-09-11T04:35:08.838Z,17.60
2022-09-11T04:39:10.900Z,17.60
2022-09-11T04:43:12.201Z,17.60
2022-09-11T04:51:09.486Z,17.60
2022-09-11T04:55:10.979Z,17.60
2022-09-11T04:59:15.483Z,17.50
2022-09-11T05:03:17.283Z,17.30
2022-09-11T05:07:18.659Z,17.30
2022-09-11T05:11:20.369Z,17.10
2022-09-11T05:15:21.542Z,17.40
2022-09-11T05:19:22.883Z,17.40
2022-09-11T05:23:25.062Z,17.50
2022-09-11T05:27:26.255Z,17.40
2022-09-11T05:31:31.569Z,17.20
2022-09-11T05:35:32.683Z,17.40
2022-09-11T05:39:33.859Z,17.40
2022-09-11T05:43:35.678Z,17.40
2022-09-11T05:47:36.868Z,17.60
2022-09-11T05:51:39.960Z,17.50
2022-09-11T05:55:41.050Z,17.60
2022-09-11T05:59:42.227Z,17.60
2022-09-11T06:03:44.004Z,17.70
2022-09-11T06:07:45.298Z,17.80
2022-09-11T06:11:46.473Z,17.90
2022-09-11T06:15:48.485Z,18.00
2022-09-11T06:19:50.652Z,18.20
2022-09-11T06:23:52.545Z,18.30
2022-09-11T06:27:55.036Z,18.60
2022-09-11T06:31:56.248Z,18.70
2022-09-11T06:35:58.927Z,18.90
2022-09-11T06:40:00.185Z,18.90
2022-09-11T06:44:01.709Z,18.90
2022-09-11T06:48:03.636Z,18.90
2022-09-11T06:52:04.934Z,18.90
2022-09-11T06:56:08.490Z,19.00
2022-09-11T07:00:10.630Z,19.20
2022-09-11T07:04:11.845Z,19.10
2022-09-11T07:08:13.483Z,19.00
2022-09-11T07:12:14.581Z,18.90
2022-09-11T07:16:16.103Z,19.00
2022-09-11T07:20:17.402Z,19.00
2022-09-11T07:24:18.859Z,19.30
2022-09-11T07:28:20.574Z,19.50
2022-09-11T07:32:21.758Z,19.40
2022-09-11T07:36:26.254Z,19.70
2022-09-11T07:40:27.445Z,20.10
2022-09-11T07:44:28.525Z,20.20
2022-09-11T07:48:29.901Z,20.10
2022-09-11T07:52:31.097Z,20.10
2022-09-11T07:56:33.791Z,20.30
2022-09-11T08:00:37.176Z,20.60
2022-09-11T08:04:38.465Z,20.90
2022-09-11T08:08:40.865Z,20.90
2022-09-11T08:12:42.355Z,20.70
2022-09-11T08:16:44.475Z,20.80
2022-09-11T08:20:45.832Z,20.60
2022-09-11T08:24:47.015Z,21.00
2022-09-11T08:28:50.133Z,21.40
2022-09-11T08:32:51.327Z,22.10
2022-09-11T08:36:52.509Z,22.90
2022-09-11T08:40:55.500Z,22.90
2022-09-11T08:44:58.989Z,23.10
2022-09-11T08:49:25.170Z,22.60
2022-09-11T08:53:30.197Z,22.80
2022-09-11T08:57:35.204Z,23.40
2022-09-11T09:01:59.819Z,23.50
2022-09-11T09:06:30.576Z,23.30
2022-09-11T09:10:42.125Z,22.90
2022-09-11T09:15:13.278Z,23.20
2022-09-11T09:19:27.488Z,23.60
2022-09-11T09:23:32.496Z,23.80
2022-09-11T09:27:36.872Z,24.50
2022-09-11T09:31:40.640Z,24.90
2022-09-11T09:35:44.225Z,25.50
2022-09-11T09:39:46.090Z,24.90
2022-09-11T09:43:57.321Z,25.00
2022-09-11T09:48:00.595Z,25.50
2022-09-11T09:52:08.884Z,25.00
2022-09-11T09:56:15.585Z,24.70
2022-09-11T10:00:21.557Z,24.20
2022-09-11T10:04:25.335Z,23.90
2022-09-11T10:08:33.009Z,23.70
2022-09-11T10:12:35.213Z,23.80
2022-09-11T10:16:36.804Z,23.80
2022-09-11T10:20:38.011Z,23.70
2022-09-11T10:24:42.033Z,23.50
2022-09-11T10:28:45.642Z,23.30
2022-09-11T10:32:46.815Z,23.50
2022-09-11T10:36:59.091Z,24.40
2022-09-11T10:41:10.214Z,25.10
2022-09-11T10:45:16.225Z,24.60
2022-09-11T10:49:21.563Z,24.40
2022-09-11T10:53:24.763Z,24.40
2022-09-11T10:57:46.670Z,24.30
2022-09-11T11:01:48.919Z,24.40
2022-09-11T11:06:30.825Z,24.30
2022-09-11T11:11:01.655Z,24.10
2022-09-11T11:15:30.048Z,24.10
2022-09-11T11:19:57.987Z,24.00
2022-09-11T11:24:18.323Z,24.10
2022-09-11T11:28:32.092Z,24.00
2022-09-11T11:32:46.417Z,23.70
2022-09-11T11:37:12.546Z,23.30
2022-09-11T11:41:18.650Z,22.90
2022-09-11T11:45:26.661Z,22.80
2022-09-11T11:49:54.177Z,22.80
2022-09-11T11:54:06.074Z,22.60
2022-09-11T11:58:38.907Z,22.40
2022-09-11T12:02:48.757Z,22.50
2022-09-11T12:06:50.550Z,22.70
2022-09-11T12:11:01.543Z,22.80
2022-09-11T12:15:09.082Z,23.00
2022-09-11T12:19:17.012Z,23.30
2022-09-11T12:23:34.323Z,23.30
2022-09-11T12:27:39.243Z,23.40
2022-09-11T12:31:50.416Z,23.60
2022-09-11T12:35:52.703Z,23.80
2022-09-11T12:39:58.056Z,23.90
2022-09-11T12:44:00.712Z,24.30
2022-09-11T12:48:05.011Z,24.60
2022-09-11T12:52:10.177Z,24.80
2022-09-11T12:56:18.828Z,24.70
2022-09-11T13:00:30.044Z,24.70
2022-09-11T13:04:32.355Z,25.00
2022-09-11T13:08:40.422Z,24.70
2022-09-11T13:12:53.307Z,24.70
2022-09-11T13:16:58.206Z,24.90
2022-09-11T13:21:11.849Z,24.80
2022-09-11T13:25:21.700Z,24.80
2022-09-11T13:29:26.088Z,25.00
2022-09-11T13:33:29.172Z,25.10
2022-09-11T13:37:43.431Z,25.20
2022-09-11T13:41:47.257Z,24.80
2022-09-11T13:45:48.608Z,25.10
2022-09-11T13:49:53.354Z,25.20
2022-09-11T13:54:10.978Z,24.80
2022-09-11T13:58:23.960Z,25.20
2022-09-11T14:02:39.795Z,24.90
2022-09-11T14:06:45.177Z,24.50
2022-09-11T14:10:49.360Z,25.00
2022-09-11T14:14:57.290Z,25.20
2022-09-11T14:19:20.726Z,25.60
2022-09-11T14:23:27.349Z,25.80
2022-09-11T14:27:36.688Z,25.50
2022-09-11T14:31:40.984Z,25.20
2022-09-11T14:35:44.446Z,25.40
2022-09-11T14:39:49.468Z,25.50
2022-09-11T14:43:50.694Z,25.80
2022-09-11T14:47:52.724Z,25.90
2022-09-11T14:52:00.779Z,26.20
2022-09-11T14:56:03.352Z,26.00
2022-09-11T15:00:05.745Z,25.90
2022-09-11T15:04:12.288Z,25.60
2022-09-11T15:08:13.751Z,25.60
2022-09-11T15:12:15.131Z,25.60
2022-09-11T15:16:16.396Z,25.50
2022-09-11T15:20:18.436Z,25.40
2022-09-11T15:24:19.639Z,25.50
2022-09-11T15:28:20.813Z,25.20
2022-09-11T15:32:22.305Z,25.30
2022-09-11T15:36:25.418Z,25.50
2022-09-11T15:40:26.520Z,25.50
2022-09-11T15:44:28.523Z,24.90
2022-09-11T15:48:30.393Z,25.10
2022-09-11T15:52:36.255Z,25.20
2022-09-11T15:56:37.565Z,25.50
2022-09-11T16:00:38.775Z,25.30
2022-09-11T16:04:40.032Z,24.80
2022-09-11T16:08:41.218Z,24.90
2022-09-11T16:12:42.421Z,25.30
2022-09-11T16:16:46.023Z,25.20
2022-09-11T16:20:57.296Z,25.10
2022-09-11T16:24:58.736Z,24.90
2022-09-11T16:29:01.424Z,24.90
2022-09-11T16:33:03.349Z,24.60
2022-09-11T16:37:04.954Z,24.20
2022-09-11T16:41:15.956Z,24.00
2022-09-11T16:45:17.160Z,23.80
2022-09-11T16:49:18.947Z,23.70
2022-09-11T16:53:25.178Z,23.50
2022-09-11T16:57:29.119Z,23.60
2022-09-11T17:01:30.613Z,23.70
2022-09-11T17:05:32.219Z,23.70
2022-09-11T17:09:33.419Z,23.70
2022-09-11T17:13:34.941Z,23.40
2022-09-11T17:17:37.247Z,23.20
2022-09-11T17:21:38.830Z,23.00
2022-09-11T17:25:40.360Z,22.90
2022-09-11T17:29:44.637Z,22.90
2022-09-11T17:33:45.626Z,22.80
2022-09-11T17:37:46.902Z,22.90
2022-09-11T17:41:48.185Z,22.70
2022-09-11T17:45:51.421Z,22.50
2022-09-11T17:49:52.527Z,22.60
2022-09-11T17:53:57.376Z,22.60
2022-09-11T17:57:58.545Z,22.30
2022-09-11T18:02:01.474Z,22.20
2022-09-11T18:06:04.993Z,22.10
2022-09-11T18:10:08.066Z,21.90
2022-09-11T18:14:10.659Z,21.90
2022-09-11T18:18:11.847Z,21.80
2022-09-11T18:22:13.023Z,21.70
2022-09-11T18:26:25.129Z,21.60
2022-09-11T18:30:26.583Z,21.50
2022-09-11T18:34:28.661Z,21.40
2022-09-11T18:38:32.936Z,21.30
2022-09-11T18:42:32.830Z,21.20
2022-09-11T18:46:36.011Z,21.00
2022-09-11T18:50:37.787Z,20.90
2022-09-11T18:54:39.014Z,20.80
2022-09-11T18:58:40.312Z,20.70
2022-09-11T19:02:41.691Z,20.60
2022-09-11T19:06:44.598Z,20.60
2022-09-11T19:10:45.778Z,20.50
2022-09-11T19:14:47.889Z,20.40
2022-09-11T19:18:49.394Z,20.40
2022-09-11T19:22:50.568Z,20.40
2022-09-11T19:26:52.241Z,20.20
2022-09-11T19:30:56.931Z,20.00
2022-09-11T19:35:00.152Z,20.10
2022-09-11T19:39:02.255Z,20.00
2022-09-11T19:43:03.459Z,19.90
2022-09-11T19:47:05.624Z,19.70
2022-09-11T19:51:13.277Z,19.60
2022-09-11T19:55:14.491Z,19.60
2022-09-11T19:59:16.266Z,19.60
2022-09-11T20:03:17.868Z,19.50
2022-09-11T20:07:19.088Z,19.40
2022-09-11T20:11:24.506Z,19.30
2022-09-11T20:15:25.684Z,19.30
2022-09-11T20:19:26.930Z,19.20
2022-09-11T20:23:29.036Z,19.30
2022-09-11T20:27:30.247Z,19.20
2022-09-11T20:31:45.636Z,19.10
2022-09-11T20:35:42.636Z,18.90
2022-09-11T20:39:43.814Z,18.80
2022-09-11T20:43:45.811Z,18.70
2022-09-11T20:47:47.231Z,18.70
2022-09-11T20:51:48.326Z,18.60
2022-09-11T20:55:49.607Z,18.60
2022-09-11T20:59:50.901Z,18.60
2022-09-11T21:03:55.763Z,18.50
2022-09-11T21:07:56.840Z,18.40
2022-09-11T21:11:58.026Z,18.50
2022-09-11T21:15:59.155Z,18.50
2022-09-11T21:20:00.485Z,18.40
2022-09-11T21:24:04.362Z,18.40
2022-09-11T21:28:05.538Z,18.40
2022-09-11T21:32:06.716Z,18.40
2022-09-11T21:36:08.141Z,18.30
2022-09-11T21:40:10.062Z,18.20
2022-09-11T21:44:11.389Z,18.20
2022-09-11T21:48:13.018Z,18.10
2022-09-11T21:52:14.277Z,18.10
2022-09-11T21:56:24.150Z,18.10
2022-09-11T22:00:25.368Z,18.10
2022-09-11T22:04:26.910Z,17.90
2022-09-11T22:08:28.355Z,17.90
2022-09-11T22:12:29.877Z,17.90
2022-09-11T22:16:32.494Z,17.90
2022-09-11T22:20:36.523Z,17.90
2022-09-11T22:24:40.761Z,17.80
2022-09-11T22:28:43.173Z,17.70
2022-09-11T22:32:44.553Z,17.80
2022-09-11T22:36:46.374Z,17.80
2022-09-11T22:40:52.844Z,17.70
2022-09-11T22:44:54.140Z,17.70
2022-09-11T22:48:55.412Z,17.70
2022-09-11T22:52:56.603Z,17.70
2022-09-11T22:56:57.925Z,17.60
2022-09-11T23:01:00.275Z,17.50
2022-09-11T23:05:20.952Z,17.60
2022-09-11T23:09:22.173Z,17.60
2022-09-11T23:13:23.357Z,17.60
2022-09-11T23:17:24.957Z,17.40
2022-09-11T23:21:27.349Z,17.30
2022-09-11T23:25:28.532Z,17.40
2022-09-11T23:29:29.764Z,17.30
2022-09-11T23:33:30.842Z,17.20
2022-09-11T23:37:33.645Z,17.10
2022-09-11T23:41:34.932Z,17.20
2022-09-11T23:45:36.154Z,17.10
2022-09-11T23:49:37.288Z,17.20
2022-09-11T23:53:39.984Z,17.00
2022-09-11T23:57:41.249Z,17.00
